Hassi R'Mel Airport

DAFH · Ghardaia, 阿尔及利亚

罗盘
风向 的 风向 150° Hassi R'Mel Airport 9/27
风: 20 kt, 5 beaufort

7 kt

19 kt
改变
0 ft 2.000 4.000 6.000 8.000 10.000
Cloud Cloud
FEW 4.000
Cloud Cloud Cloud Cloud
SCT 10.000
METAR DAFH 191100Z 15020KT 7000 DRSA FEW040 SCT100 39/00 Q1017

METAR Hassi R'Mel Airport - DAFH/HRM

Hassi R'Mel Airport是,阿尔及利亚中的中型机场。 该机场位于纬度32,93040和经度3,31154。 该机场有一条跑道: 9/27. 本场的ICAO机场代码为DAFH。 该机场的IATA代码为HRM。 机场在Alger FIR中。

该航空气象观测是针对Hassi R'Mel Airport在2024年6月19日 12:00, 当地时间进行的。

机场观察

风向为150°,速度为20 kt。

可见度为7 km。

有几云在4.000 ft的高度 和 疏云,零星散落的云朵在10.000 ft的高度。 没有观察到天花板。

当前天气为低飘 沙。 温度和风寒是39 °C。 海平面上的气压为1017 hPa (QNH)。

白天

今天,太阳从05:38升起,在19:58降落。 这适用于Hassi R'Mel Airport,世界夏令时可能有所不同。 当地时间与世界标准时间之间的时差为+1 小时。 夏令时目前正在进行中。

公司介绍

我们没有关于这个机场的公司信息。

体会

到Vliegles.nl去找飞行课程,跳伞和其他飞行体验。 浏览页面,了解Hassi R'Mel Airport附近所有可用的活动。 你也可以使用搜索功能来寻找你所在地附近的特定飞行课程、跳伞或其他飞行体验。

跑道

Id 标题 侧风 逆风 侧风 %
9/27 079°-259° 19 kt 7 kt 95 %

逆风成分最大的方向会被突出显示,并用于横风计算。 这并不一定意味着这个方向在使用。

乌云

4.000 ft FEW 几云
10.000 ft SCT 疏云,零星散落的云朵

温度 & 天气

天气 低飘 沙
温度 39 °C
露点 0 °C
相对湿度 9%
Kp-index 1 (0-9)

白天

日出
05:38
中午
12:48
日落
19:58 (7:36)

小工具

你想在你的网站上有一个关于Hassi R'Mel Airport的当前航空天气(METAR)的小部件吗?

显示HTML代码
报告变更